Time;durP1;ratioP1;P1;durP2;ratioP2;P2;SDS_P1;SDS_P2;PMS_P1;PMS_P2;Temp;Humidity;BMP_temperature;BMP_pressure;BME280_temperature;BME280_humidity;BME280_pressure;Samples;Min_cycle;Max_cycle;Signal;HPM_P1;HPM_P2
2022/11/01 00:01:09;;;;;;;64.30;34.83;;;11.90;99.90;;;;;;4933995;29;20074;-70
2022/11/01 00:03:34;;;;;;;70.57;35.75;;;11.90;99.90;;;;;;4932864;29;20417;-70
2022/11/01 00:06:00;;;;;;;52.97;33.25;;;12.00;99.90;;;;;;4948750;29;20056;-70
2022/11/01 00:08:26;;;;;;;57.17;33.35;;;12.00;99.90;;;;;;4932506;29;20146;-70
2022/11/01 00:10:51;;;;;;;64.22;33.10;;;12.00;99.90;;;;;;4929623;29;20040;-70
2022/11/01 00:13:17;;;;;;;73.80;34.20;;;12.00;99.90;;;;;;4927349;29;20132;-70
2022/11/01 00:15:43;;;;;;;59.83;33.15;;;12.00;99.90;;;;;;4933209;29;20540;-70
2022/11/01 00:18:08;;;;;;;65.50;34.50;;;12.10;99.90;;;;;;4933266;29;20496;-70
2022/11/01 00:20:34;;;;;;;65.72;33.10;;;12.10;99.90;;;;;;4932618;29;20051;-70
2022/11/01 00:22:59;;;;;;;62.13;34.65;;;12.10;99.90;;;;;;4947973;29;20408;-70
2022/11/01 00:25:25;;;;;;;50.75;32.47;;;12.10;99.90;;;;;;4933883;29;20059;-70
2022/11/01 00:27:51;;;;;;;56.45;31.40;;;12.00;99.90;;;;;;4933916;29;20047;-70
2022/11/01 00:30:16;;;;;;;55.53;32.80;;;12.10;99.90;;;;;;4932759;29;20130;-70
2022/11/01 00:32:42;;;;;;;52.33;29.73;;;12.10;99.90;;;;;;4931954;29;20052;-70
2022/11/01 00:35:08;;;;;;;63.72;33.58;;;12.00;99.90;;;;;;4927742;29;20607;-70
2022/11/01 00:37:33;;;;;;;59.03;34.33;;;12.10;99.90;;;;;;4932597;29;20054;-70
2022/11/01 00:39:59;;;;;;;54.80;31.60;;;12.00;99.90;;;;;;4932653;29;20103;-70
2022/11/01 00:42:24;;;;;;;57.42;31.73;;;12.00;99.90;;;;;;4926600;29;20050;-70
2022/11/01 00:44:50;;;;;;;61.95;31.15;;;12.10;99.90;;;;;;4943004;29;20534;-70
2022/11/01 00:47:16;;;;;;;55.20;30.00;;;12.20;99.90;;;;;;4932694;29;20039;-70
2022/11/01 00:49:41;;;;;;;62.92;30.83;;;12.10;99.90;;;;;;4930811;29;20047;-70
2022/11/01 00:52:07;;;;;;;51.30;29.67;;;12.20;99.90;;;;;;4947513;29;20133;-70
2022/11/01 00:54:32;;;;;;;53.33;30.58;;;12.10;99.90;;;;;;4931217;29;20408;-70
2022/11/01 00:56:58;;;;;;;52.25;29.02;;;12.20;99.90;;;;;;4933106;29;20051;-70
2022/11/01 00:59:24;;;;;;;52.33;32.35;;;12.20;99.90;;;;;;4931856;29;20044;-70
2022/11/01 01:01:50;;;;;;;55.80;32.67;;;12.40;99.90;;;;;;4932126;29;20059;-70
2022/11/01 01:04:15;;;;;;;52.00;30.45;;;12.30;99.90;;;;;;4931922;29;20052;-70
2022/11/01 01:06:41;;;;;;;49.75;29.58;;;12.20;99.90;;;;;;4932489;29;20848;-70
2022/11/01 01:09:07;;;;;;;50.80;29.23;;;12.20;99.90;;;;;;4946818;29;20472;-70
2022/11/01 01:11:32;;;;;;;48.58;26.77;;;12.40;99.90;;;;;;4931895;29;20047;-70
2022/11/01 01:13:58;;;;;;;44.20;27.60;;;12.30;99.90;;;;;;4947552;29;20413;-70
2022/11/01 01:16:23;;;;;;;44.13;27.88;;;12.30;99.90;;;;;;4933051;29;20040;-70
2022/11/01 01:18:49;;;;;;;47.97;28.70;;;12.40;99.90;;;;;;4931507;29;20856;-70
2022/11/01 01:21:16;;;;;;;50.25;26.88;;;12.40;99.90;;;;;;4947372;29;20055;-70
2022/11/01 01:23:42;;;;;;;49.53;26.33;;;12.40;99.90;;;;;;4932942;29;20056;-70
2022/11/01 01:26:09;;;;;;;47.47;26.75;;;12.40;99.90;;;;;;4931343;29;20502;-70
2022/11/01 01:28:35;;;;;;;46.88;28.42;;;12.40;99.90;;;;;;4931011;29;20130;-70
2022/11/01 01:31:06;;;;;;;50.75;25.00;;;12.50;99.90;;;;;;4930804;29;20055;-70
2022/11/01 01:33:31;;;;;;;46.10;26.08;;;12.60;99.90;;;;;;4946961;29;20553;-70
2022/11/01 01:36:00;;;;;;;45.72;25.42;;;12.60;99.90;;;;;;4932544;29;20131;-70
2022/11/01 01:38:26;;;;;;;55.97;28.25;;;12.60;99.90;;;;;;4932261;29;20059;-69
2022/11/01 01:40:51;;;;;;;39.95;23.75;;;12.60;99.90;;;;;;4931096;29;20120;-70
2022/11/01 01:43:17;;;;;;;49.83;25.35;;;12.80;99.90;;;;;;4930687;29;20401;-69
2022/11/01 01:45:43;;;;;;;41.38;24.27;;;12.90;99.90;;;;;;4931324;29;20055;-70
2022/11/01 01:48:12;;;;;;;38.10;26.13;;;12.80;99.90;;;;;;4946698;29;20075;-70
2022/11/01 01:50:46;;;;;;;42.15;24.17;;;12.90;99.90;;;;;;4931925;29;20048;-69
2022/11/01 01:53:43;;;;;;;39.03;24.55;;;12.80;99.90;;;;;;4931510;29;20509;-69
2022/11/01 01:56:13;;;;;;;43.33;24.50;;;12.80;99.90;;;;;;4919312;29;20066;-69
2022/11/01 01:58:53;;;;;;;52.72;24.15;;;12.80;99.90;;;;;;4930202;29;20044;-69
2022/11/01 02:01:19;;;;;;;42.13;23.98;;;12.90;99.90;;;;;;4929157;29;20126;-70
2022/11/01 02:03:46;;;;;;;51.78;24.45;;;12.90;99.90;;;;;;4931072;29;20122;-70
2022/11/01 02:06:15;;;;;;;37.08;22.83;;;12.90;99.90;;;;;;4932205;29;20055;-70
2022/11/01 02:08:45;;;;;;;34.50;22.23;;;13.00;99.90;;;;;;4944590;29;20496;-70
2022/11/01 02:11:12;;;;;;;32.13;19.30;;;12.90;99.90;;;;;;4946841;29;20130;-70
2022/11/01 02:13:38;;;;;;;41.90;21.67;;;12.90;99.90;;;;;;4931250;29;20099;-70
2022/11/01 02:16:22;;;;;;;48.95;22.73;;;13.00;99.90;;;;;;4933846;28;20059;-70
2022/11/01 02:19:16;;;;;;;43.72;22.20;;;13.00;99.90;;;;;;4931243;29;20055;-70
2022/11/01 02:21:47;;;;;;;37.10;21.50;;;13.10;99.90;;;;;;4949454;28;20051;-70
2022/11/01 02:24:25;;;;;;;35.97;20.80;;;13.10;99.90;;;;;;4930091;29;20421;-70
2022/11/01 02:26:54;;;;;;;;;;;13.10;99.90;;;;;;4946534;29;20060;-70
2022/11/01 02:29:27;;;;;;;48.35;23.60;;;13.10;99.90;;;;;;4930015;29;20015;-70
2022/11/01 02:32:15;;;;;;;33.72;20.55;;;13.10;99.90;;;;;;4931367;29;20060;-70
2022/11/01 02:34:43;;;;;;;;;;;13.10;99.90;;;;;;4918603;29;20086;-70
2022/11/01 02:37:42;;;;;;;33.85;21.63;;;13.00;99.90;;;;;;4929339;29;19927;-70
2022/11/01 02:40:15;;;;;;;34.75;21.27;;;13.10;99.90;;;;;;4920695;29;20051;-70
2022/11/01 02:42:47;;;;;;;42.75;22.27;;;13.20;99.90;;;;;;4931015;28;20051;-70
2022/11/01 02:45:28;;;;;;;37.45;22.17;;;13.10;99.90;;;;;;4931274;29;20107;-70
2022/11/01 02:48:01;;;;;;;34.72;20.13;;;13.20;99.90;;;;;;4930871;29;20047;-70
2022/11/01 02:50:40;;;;;;;36.78;21.13;;;13.30;99.90;;;;;;4931140;29;20047;-70
2022/11/01 02:53:06;;;;;;;35.40;19.65;;;13.20;99.90;;;;;;4924526;29;20415;-70
2022/11/01 02:55:35;;;;;;;41.28;19.58;;;13.30;99.90;;;;;;4930524;29;20043;-70
2022/11/01 02:58:22;;;;;;;29.25;18.77;;;13.30;99.90;;;;;;4930553;29;20059;-70
2022/11/01 03:00:48;;;;;;;32.72;21.15;;;13.30;99.90;;;;;;4930284;29;20054;-69
2022/11/01 03:03:32;;;;;;;39.35;20.92;;;13.30;99.90;;;;;;4930767;29;20036;-70
2022/11/01 03:06:04;;;;;;;42.03;20.17;;;13.30;99.90;;;;;;4945857;28;20062;-69
2022/11/01 03:08:38;;;;;;;51.17;19.60;;;13.30;99.90;;;;;;4931453;29;20512;-69
2022/11/01 03:11:15;;;;;;;32.45;19.95;;;13.30;99.90;;;;;;4933058;29;20047;-70
2022/11/01 03:14:05;;;;;;;41.92;20.48;;;13.30;99.90;;;;;;4930632;29;20046;-69
2022/11/01 03:16:35;;;;;;;40.78;20.95;;;13.30;99.90;;;;;;4930547;29;20040;-69
2022/11/01 03:19:20;;;;;;;32.10;19.23;;;13.30;99.90;;;;;;4931011;29;20044;-69
2022/11/01 03:22:03;;;;;;;28.35;17.42;;;13.30;99.90;;;;;;4930582;29;20118;-71
2022/11/01 03:24:36;;;;;;;31.38;16.15;;;13.40;99.90;;;;;;4929190;29;20062;-69
2022/11/01 03:27:11;;;;;;;30.90;16.58;;;13.50;99.90;;;;;;4927599;29;20055;-69
2022/11/01 03:29:39;;;;;;;38.42;18.10;;;13.70;99.90;;;;;;4929520;29;20119;-70
2022/11/01 03:32:07;;;;;;;27.52;16.75;;;13.70;99.90;;;;;;4930383;29;20108;-69
2022/11/01 03:34:35;;;;;;;28.23;16.63;;;13.80;99.90;;;;;;4930192;29;20044;-70
2022/11/01 03:37:05;;;;;;;33.50;16.75;;;13.90;99.90;;;;;;4941963;29;20056;-69
2022/11/01 03:39:41;;;;;;;29.73;15.93;;;14.00;99.90;;;;;;4929483;29;20055;-69
2022/11/01 03:42:10;;;;;;;36.38;16.30;;;14.10;99.90;;;;;;4925223;29;20056;-69
2022/11/01 03:44:51;;;;;;;30.73;16.70;;;14.10;99.90;;;;;;4932066;29;20059;-69
2022/11/01 03:47:17;;;;;;;24.55;16.63;;;14.20;99.90;;;;;;4930705;29;20102;-69
2022/11/01 03:49:43;;;;;;;33.45;15.32;;;14.30;99.90;;;;;;4929063;29;20052;-69
2022/11/01 03:52:09;;;;;;;27.77;15.02;;;14.30;99.90;;;;;;4928639;29;20059;-69
2022/11/01 03:54:34;;;;;;;28.35;16.13;;;14.30;99.90;;;;;;4930286;29;20051;-69
2022/11/01 03:57:00;;;;;;;29.38;15.90;;;14.30;99.90;;;;;;4936294;29;20463;-69
2022/11/01 03:59:25;;;;;;;26.98;14.82;;;14.30;99.90;;;;;;4929630;29;20048;-69
2022/11/01 04:01:51;;;;;;;31.02;14.45;;;14.40;99.90;;;;;;4929207;29;20050;-69
2022/11/01 04:04:17;;;;;;;22.58;14.90;;;14.30;99.90;;;;;;4928455;29;20059;-69
2022/11/01 04:06:42;;;;;;;32.30;14.75;;;14.40;99.90;;;;;;4930754;29;20043;-69
2022/11/01 04:09:09;;;;;;;33.10;14.27;;;14.50;99.90;;;;;;4943953;29;20044;-69
2022/11/01 04:11:34;;;;;;;26.92;14.60;;;14.40;99.90;;;;;;4930308;29;20048;-69
2022/11/01 04:22:13;;;;;;;28.60;14.15;;;14.30;99.90;;;;;;4944687;29;20535;-69
2022/11/01 04:24:39;;;;;;;28.65;14.65;;;14.30;99.90;;;;;;4912840;29;20051;-69
2022/11/01 04:27:05;;;;;;;30.42;14.35;;;14.20;99.90;;;;;;4929756;29;20055;-69
2022/11/01 04:29:31;;;;;;;25.67;14.05;;;14.30;99.90;;;;;;4929436;29;20102;-69
2022/11/01 04:31:57;;;;;;;23.23;13.90;;;14.30;99.90;;;;;;4929648;29;20060;-69
2022/11/01 04:34:41;;;;;;;29.08;13.88;;;14.20;99.90;;;;;;4928626;29;20747;-69
2022/11/01 04:37:08;;;;;;;28.58;13.50;;;14.40;99.90;;;;;;4928252;29;20107;-69
2022/11/01 04:39:34;;;;;;;30.52;14.68;;;14.30;99.90;;;;;;4932639;29;20051;-69
2022/11/01 04:41:59;;;;;;;27.38;13.65;;;14.50;99.90;;;;;;4933323;29;20469;-69
2022/11/01 04:44:25;;;;;;;22.95;11.43;;;14.30;99.90;;;;;;4933108;29;20043;-69
2022/11/01 04:46:51;;;;;;;24.00;13.52;;;14.40;99.90;;;;;;4934445;29;20047;-69
2022/11/01 04:49:16;;;;;;;23.73;14.25;;;14.40;99.90;;;;;;4931715;29;20458;-69
2022/11/01 04:51:42;;;;;;;24.23;13.85;;;14.40;99.90;;;;;;4938046;29;20052;-69
2022/11/01 04:54:07;;;;;;;30.13;12.50;;;14.50;99.90;;;;;;4930972;29;20491;-69
2022/11/01 04:56:33;;;;;;;50.70;14.73;;;14.40;99.90;;;;;;4947710;28;20051;-69
2022/11/01 04:58:59;;;;;;;20.58;13.05;;;14.40;99.90;;;;;;4932842;29;20046;-69
2022/11/01 05:01:24;;;;;;;17.48;11.98;;;14.70;99.90;;;;;;4948353;29;20625;-69
2022/11/01 05:03:50;;;;;;;23.40;12.60;;;14.50;99.90;;;;;;4944921;29;20054;-69
2022/11/01 05:06:16;;;;;;;27.50;13.90;;;14.70;99.90;;;;;;4936969;29;20445;-71
2022/11/01 05:08:41;;;;;;;25.75;12.73;;;14.70;99.90;;;;;;4930666;29;20479;-70
2022/11/01 05:11:07;;;;;;;21.08;13.70;;;14.80;99.90;;;;;;4930739;29;20394;-70
2022/11/01 05:13:33;;;;;;;25.08;13.30;;;14.60;99.90;;;;;;4936199;29;20110;-70
2022/11/01 05:16:02;;;;;;;28.27;12.80;;;14.70;99.90;;;;;;4931548;29;20071;-69
2022/11/01 05:18:28;;;;;;;25.80;13.07;;;14.80;99.90;;;;;;4929745;29;20083;-70
2022/11/01 05:20:55;;;;;;;23.00;12.57;;;14.80;99.90;;;;;;4933687;29;20094;-69
2022/11/01 05:23:20;;;;;;;19.30;12.00;;;14.80;99.90;;;;;;4947111;28;20417;-69
2022/11/01 05:25:46;;;;;;;40.75;13.30;;;15.00;99.90;;;;;;4928480;29;20050;-69
2022/11/01 05:28:13;;;;;;;20.10;12.73;;;15.10;99.90;;;;;;4946036;28;20044;-70
2022/11/01 05:30:40;;;;;;;17.25;11.43;;;14.90;99.90;;;;;;4931974;29;20055;-69
2022/11/01 05:33:07;;;;;;;27.27;12.35;;;14.90;99.90;;;;;;4928631;29;20815;-70
2022/11/01 05:35:34;;;;;;;17.60;11.77;;;14.80;99.90;;;;;;4928172;29;20155;-69
2022/11/01 05:38:02;;;;;;;24.77;12.45;;;14.90;99.90;;;;;;4931305;29;20063;-69
2022/11/01 05:40:28;;;;;;;21.50;12.33;;;14.90;99.90;;;;;;4932351;29;20470;-69
2022/11/01 05:42:53;;;;;;;29.13;12.27;;;15.00;99.90;;;;;;4914869;29;20408;-69
2022/11/01 05:45:19;;;;;;;24.02;13.43;;;14.80;99.90;;;;;;4931657;29;20043;-70
2022/11/01 05:47:45;;;;;;;19.92;12.90;;;14.90;99.90;;;;;;4930682;29;20050;-70
2022/11/01 05:50:13;;;;;;;22.48;13.15;;;14.90;99.90;;;;;;4930460;29;20124;-70
2022/11/01 05:52:39;;;;;;;;;;;15.00;99.90;;;;;;4931735;29;20412;-70
2022/11/01 05:55:06;;;;;;;25.65;11.98;;;15.30;99.90;;;;;;4933080;29;20017;-70
2022/11/01 05:57:31;;;;;;;24.10;12.15;;;15.00;99.90;;;;;;4939917;28;20492;-70
2022/11/01 05:59:57;;;;;;;25.20;12.13;;;15.00;99.90;;;;;;4930400;29;20051;-70
2022/11/01 06:02:23;;;;;;;20.13;11.27;;;14.90;99.90;;;;;;4932243;29;20094;-69
2022/11/01 06:04:49;;;;;;;17.48;11.70;;;15.00;99.90;;;;;;4932023;29;20044;-70
2022/11/01 06:07:14;;;;;;;19.20;11.95;;;15.10;99.90;;;;;;4927234;29;20051;-70
2022/11/01 06:09:40;;;;;;;29.73;12.10;;;15.10;99.90;;;;;;4931732;29;20043;-69
2022/11/01 06:12:05;;;;;;;21.05;11.63;;;15.00;99.90;;;;;;4943157;28;20493;-70
2022/11/01 06:14:31;;;;;;;20.92;9.80;;;15.00;99.90;;;;;;4930928;29;20106;-70
2022/11/01 06:16:57;;;;;;;19.67;7.60;;;15.00;99.90;;;;;;4930917;29;20107;-70
2022/11/01 06:19:22;;;;;;;19.45;8.52;;;15.00;99.90;;;;;;4931724;29;20122;-70
2022/11/01 06:21:48;;;;;;;9.25;4.80;;;15.10;99.90;;;;;;4930529;29;20569;-71
2022/11/01 06:24:14;;;;;;;16.95;4.97;;;15.10;99.90;;;;;;4930671;29;20044;-70
2022/11/01 06:26:39;;;;;;;8.68;3.53;;;15.00;99.90;;;;;;4929983;29;20523;-70
2022/11/01 06:29:05;;;;;;;6.32;3.22;;;14.90;99.90;;;;;;4931025;29;20062;-70
2022/11/01 06:31:31;;;;;;;10.75;3.97;;;14.90;99.90;;;;;;4931104;29;20059;-70
2022/11/01 06:33:56;;;;;;;9.65;3.92;;;14.80;99.90;;;;;;4929818;29;20762;-71
2022/11/01 06:36:22;;;;;;;4.00;2.90;;;14.70;99.90;;;;;;4926752;29;20055;-70
2022/11/01 06:38:48;;;;;;;7.80;3.95;;;14.70;99.90;;;;;;4940266;29;20110;-71
2022/11/01 06:41:14;;;;;;;7.72;4.05;;;14.70;99.90;;;;;;4929748;29;20485;-71
2022/11/01 06:43:41;;;;;;;3.90;3.47;;;14.60;99.90;;;;;;4931130;29;20043;-70
2022/11/01 06:46:07;;;;;;;5.85;3.35;;;14.60;99.90;;;;;;4934210;29;20078;-70
2022/11/01 06:48:32;;;;;;;7.00;3.83;;;14.50;99.90;;;;;;4930784;29;20048;-70
2022/11/01 06:51:02;;;;;;;17.10;4.53;;;14.40;99.90;;;;;;4930456;29;20501;-70
2022/11/01 06:53:28;;;;;;;9.38;4.82;;;14.30;99.90;;;;;;4930736;29;20104;-70
2022/11/01 06:55:54;;;;;;;12.25;5.38;;;14.30;99.90;;;;;;4929420;29;20059;-70
2022/11/01 06:58:19;;;;;;;9.77;4.97;;;14.20;99.90;;;;;;4933536;29;20043;-70
2022/11/01 07:00:45;;;;;;;4.78;3.40;;;14.20;99.90;;;;;;4928993;29;20043;-70
2022/11/01 07:03:13;;;;;;;9.48;4.28;;;14.10;99.90;;;;;;4932652;29;20054;-70
2022/11/01 07:05:39;;;;;;;7.88;2.88;;;14.10;99.90;;;;;;4930794;29;20596;-70
2022/11/01 07:08:07;;;;;;;8.50;3.10;;;14.00;99.90;;;;;;4926993;29;21379;-71
2022/11/01 07:10:34;;;;;;;8.20;2.78;;;13.90;99.90;;;;;;4921603;29;20513;-70
2022/11/01 07:13:01;;;;;;;2.58;2.38;;;14.00;99.90;;;;;;4943536;28;20406;-70
2022/11/01 07:15:27;;;;;;;8.18;3.10;;;13.90;99.90;;;;;;4944359;28;20177;-70
2022/11/01 07:17:57;;;;;;;6.93;2.53;;;13.90;99.90;;;;;;4927711;29;20059;-70
2022/11/01 07:20:24;;;;;;;10.93;3.85;;;13.80;99.90;;;;;;4931048;29;20102;-70
2022/11/01 07:23:02;;;;;;;6.20;3.25;;;13.70;99.90;;;;;;4930782;29;20420;-70
2022/11/01 07:25:29;;;;;;;10.85;2.78;;;13.70;99.90;;;;;;4930709;29;20056;-70
2022/11/01 07:27:55;;;;;;;9.95;3.45;;;13.70;99.90;;;;;;4929490;29;20555;-70
2022/11/01 07:30:21;;;;;;;3.75;2.70;;;13.60;99.90;;;;;;4928896;29;20066;-70
2022/11/01 07:32:46;;;;;;;13.25;3.65;;;13.60;99.90;;;;;;4929404;29;20119;-70
2022/11/01 07:35:12;;;;;;;7.78;3.70;;;13.60;99.90;;;;;;4930759;29;20562;-70
2022/11/01 07:37:38;;;;;;;7.53;3.47;;;13.50;99.90;;;;;;4929801;29;20059;-70
2022/11/01 07:40:05;;;;;;;8.25;3.92;;;13.50;99.90;;;;;;4927983;29;20051;-70
2022/11/01 07:42:30;;;;;;;8.18;2.90;;;13.50;99.90;;;;;;4945167;29;20055;-70
2022/11/01 07:44:56;;;;;;;6.18;3.15;;;13.50;99.90;;;;;;4929018;29;20115;-71
2022/11/01 07:47:22;;;;;;;9.98;3.55;;;13.60;99.90;;;;;;4929459;29;20150;-70
2022/11/01 07:49:49;;;;;;;8.63;3.72;;;13.50;99.90;;;;;;4930146;29;20059;-70
2022/11/01 07:52:14;;;;;;;6.30;2.70;;;13.50;99.90;;;;;;4927638;29;20087;-70
2022/11/01 07:54:40;;;;;;;6.00;2.95;;;13.60;99.90;;;;;;4930276;29;20536;-70
2022/11/01 07:57:06;;;;;;;5.65;3.40;;;13.60;99.90;;;;;;4928458;29;20051;-71
2022/11/01 07:59:32;;;;;;;8.32;3.38;;;13.70;99.90;;;;;;4929967;29;20048;-71
2022/11/01 08:01:57;;;;;;;6.50;2.72;;;13.70;99.90;;;;;;4925579;29;20070;-71
2022/11/01 08:04:23;;;;;;;7.95;3.00;;;13.70;99.90;;;;;;4911893;29;20044;-71
2022/11/01 08:06:49;;;;;;;6.90;2.85;;;13.80;99.90;;;;;;4930599;29;20134;-71
2022/11/01 08:09:14;;;;;;;24.83;3.88;;;13.80;99.90;;;;;;4929000;29;20115;-71
2022/11/01 08:11:40;;;;;;;6.47;3.10;;;14.00;99.90;;;;;;4929292;29;20056;-71
2022/11/01 08:14:06;;;;;;;15.68;3.33;;;13.90;99.90;;;;;;4931726;29;20143;-71
2022/11/01 08:16:31;;;;;;;11.25;3.47;;;13.90;99.90;;;;;;4932624;29;20122;-71
2022/11/01 08:18:57;;;;;;;17.30;5.32;;;14.00;99.90;;;;;;4935696;29;20052;-71
2022/11/01 08:21:23;;;;;;;26.73;4.60;;;13.90;99.90;;;;;;4914835;29;20695;-71
2022/11/01 08:23:48;;;;;;;21.75;4.47;;;13.90;99.90;;;;;;4932556;29;20044;-71
2022/11/01 08:26:14;;;;;;;8.50;3.28;;;13.80;99.90;;;;;;4934065;29;20052;-70
2022/11/01 08:28:40;;;;;;;17.10;3.50;;;13.90;99.90;;;;;;4930837;29;20056;-71
2022/11/01 08:31:08;;;;;;;9.85;3.97;;;13.90;99.90;;;;;;4933598;29;20052;-71
2022/11/01 08:33:33;;;;;;;14.30;4.18;;;13.90;99.90;;;;;;4931549;29;20211;-71
2022/11/01 08:35:59;;;;;;;16.83;4.03;;;14.10;99.90;;;;;;4933505;29;20043;-69
2022/11/01 08:38:26;;;;;;;18.48;4.03;;;14.10;99.90;;;;;;4932705;29;20048;-72
2022/11/01 08:40:52;;;;;;;25.98;4.97;;;14.30;99.90;;;;;;4928393;29;20453;-72
2022/11/01 08:43:18;;;;;;;19.38;5.10;;;14.20;99.90;;;;;;4931471;29;20592;-72
2022/11/01 08:45:43;;;;;;;8.48;3.53;;;14.30;99.90;;;;;;4933777;29;20059;-72
2022/11/01 08:48:09;;;;;;;17.65;4.38;;;14.40;99.90;;;;;;4931420;29;20404;-71
2022/11/01 08:50:35;;;;;;;19.77;5.22;;;14.30;99.90;;;;;;4932644;29;20422;-72
2022/11/01 08:53:12;;;;;;;17.80;4.65;;;14.40;99.90;;;;;;4931355;29;20052;-72
2022/11/01 08:55:38;;;;;;;23.15;4.78;;;14.60;99.90;;;;;;4932321;29;20051;-71
2022/11/01 08:58:04;;;;;;;19.35;5.75;;;14.50;99.90;;;;;;4932156;29;20507;-72
2022/11/01 09:00:30;;;;;;;27.60;4.80;;;14.60;99.90;;;;;;4936653;29;20047;-72
2022/11/01 09:02:56;;;;;;;28.48;5.93;;;14.70;99.90;;;;;;4931887;29;20051;-72
2022/11/01 09:05:22;;;;;;;15.57;6.00;;;14.70;99.90;;;;;;4948089;28;20060;-72
2022/11/01 09:07:48;;;;;;;10.45;4.30;;;14.60;99.90;;;;;;4931694;29;20126;-72
2022/11/01 09:10:17;;;;;;;19.20;5.32;;;14.70;99.90;;;;;;4930479;29;20047;-72
2022/11/01 09:12:43;;;;;;;24.88;5.15;;;14.80;99.90;;;;;;4934181;29;20051;-72
2022/11/01 09:15:10;;;;;;;22.10;4.75;;;14.80;99.90;;;;;;4933846;29;20099;-72
2022/11/01 09:17:36;;;;;;;32.55;5.53;;;14.80;99.90;;;;;;4931815;29;20063;-73
2022/11/01 09:20:03;;;;;;;20.67;4.57;;;14.90;99.90;;;;;;4931332;29;20074;-72
2022/11/01 09:22:28;;;;;;;13.68;4.30;;;14.90;99.90;;;;;;4947273;28;20106;-72
2022/11/01 09:24:55;;;;;;;18.15;5.22;;;15.00;99.90;;;;;;4930176;29;20047;-72
2022/11/01 09:27:21;;;;;;;26.73;4.80;;;15.10;99.90;;;;;;4931899;29;20130;-72
2022/11/01 09:29:47;;;;;;;25.73;5.20;;;15.00;99.90;;;;;;4932082;29;20127;-73
2022/11/01 09:32:12;;;;;;;19.65;5.28;;;15.30;99.90;;;;;;4925981;29;20618;-72
2022/11/01 09:34:38;;;;;;;29.52;6.72;;;15.30;99.90;;;;;;4930048;29;20881;-72
2022/11/01 09:37:05;;;;;;;26.88;5.20;;;15.20;99.90;;;;;;4930247;29;20130;-72
2022/11/01 09:39:31;;;;;;;29.42;5.43;;;15.20;99.90;;;;;;4930393;29;20123;-72
2022/11/01 09:42:09;;;;;;;23.52;4.95;;;15.30;99.90;;;;;;4928789;29;20130;-73
2022/11/01 09:44:42;;;;;;;21.13;5.80;;;15.50;99.90;;;;;;4927677;29;20641;-72
2022/11/01 09:47:21;;;;;;;17.70;4.88;;;15.50;99.90;;;;;;4927062;29;20058;-73
2022/11/01 09:50:00;;;;;;;18.52;5.70;;;15.70;99.90;;;;;;4930223;29;20043;-72
2022/11/01 09:52:26;;;;;;;17.83;4.55;;;15.70;99.90;;;;;;4932161;29;20054;-72
2022/11/01 09:54:52;;;;;;;15.05;4.93;;;15.70;99.90;;;;;;4930192;29;20044;-73
2022/11/01 09:57:29;;;;;;;27.10;4.78;;;15.70;99.90;;;;;;4930617;29;20460;-73
2022/11/01 10:00:04;;;;;;;26.90;6.13;;;15.90;99.90;;;;;;4928694;29;20075;-73
2022/11/01 10:03:07;;;;;;;32.08;6.38;;;16.00;99.90;;;;;;4942769;29;20143;-72
2022/11/01 10:05:51;;;;;;;16.83;4.43;;;16.10;99.90;;;;;;4926518;29;20087;-73
2022/11/01 10:08:36;;;;;;;25.38;6.07;;;16.20;99.90;;;;;;4931783;29;20131;-74
2022/11/01 10:11:08;;;;;;;23.15;5.53;;;16.20;99.90;;;;;;4933229;29;20048;-73
2022/11/01 10:13:55;;;;;;;20.60;5.85;;;16.30;99.90;;;;;;4914613;29;20089;-73
2022/11/01 10:16:40;;;;;;;22.20;4.68;;;16.30;99.90;;;;;;4927284;29;20063;-73
2022/11/01 10:19:17;;;;;;;25.25;5.43;;;16.40;99.90;;;;;;4920514;29;20055;-73
2022/11/01 10:21:51;;;;;;;25.92;4.78;;;16.50;99.90;;;;;;4946569;28;20146;-73
2022/11/01 10:24:33;;;;;;;22.20;5.07;;;16.30;99.90;;;;;;4929414;29;20721;-73
2022/11/01 10:27:10;;;;;;;24.17;4.88;;;16.40;99.90;;;;;;4946039;29;20078;-73
2022/11/01 10:29:54;;;;;;;30.92;6.65;;;16.30;99.90;;;;;;4926898;29;20163;-73
2022/11/01 10:32:36;;;;;;;33.88;5.97;;;16.30;99.90;;;;;;4928075;29;20505;-73
2022/11/01 10:35:13;;;;;;;21.65;4.53;;;16.30;99.90;;;;;;4944530;28;20051;-73
2022/11/01 10:37:43;;;;;;;22.67;5.63;;;16.30;99.90;;;;;;4928168;29;20679;-73
2022/11/01 10:40:14;;;;;;;21.25;4.53;;;16.20;99.90;;;;;;4930036;29;20420;-73
2022/11/01 10:42:40;;;;;;;22.08;5.72;;;16.20;99.90;;;;;;4929571;29;20054;-72
2022/11/01 10:45:10;;;;;;;25.10;5.28;;;16.30;99.90;;;;;;4930794;29;20063;-73
2022/11/01 10:47:37;;;;;;;27.50;5.82;;;16.30;99.90;;;;;;4929788;29;20099;-72
2022/11/01 10:50:10;;;;;;;33.33;6.15;;;16.40;99.90;;;;;;4929879;29;20039;-73
2022/11/01 10:53:07;;;;;;;14.00;4.72;;;16.40;99.90;;;;;;4930458;29;20422;-73
2022/11/01 10:55:50;;;;;;;17.70;4.57;;;16.50;99.90;;;;;;4920366;29;20457;-72
2022/11/01 10:58:15;;;;;;;22.90;5.30;;;16.40;99.90;;;;;;4929341;29;20075;-72
2022/11/01 11:00:41;;;;;;;20.92;5.82;;;16.40;99.90;;;;;;4922289;29;20142;-73
2022/11/01 11:03:23;;;;;;;25.50;6.25;;;16.60;99.90;;;;;;4942926;29;20039;-73
2022/11/01 11:05:50;;;;;;;17.17;5.57;;;16.40;99.90;;;;;;4924925;29;20668;-72
2022/11/01 11:08:19;;;;;;;26.83;5.67;;;16.30;99.90;;;;;;4927546;29;20229;-73
2022/11/01 11:10:45;;;;;;;15.23;4.35;;;16.40;99.90;;;;;;4928738;29;20055;-72
2022/11/01 11:13:13;;;;;;;24.85;5.80;;;16.40;99.90;;;;;;4927432;29;20054;-72
2022/11/01 11:16:03;;;;;;;17.17;5.25;;;16.30;99.90;;;;;;4932923;29;20079;-72
2022/11/01 11:18:38;;;;;;;25.52;4.55;;;16.40;99.90;;;;;;4944409;28;20065;-72
2022/11/01 11:21:10;;;;;;;23.30;4.95;;;16.20;99.90;;;;;;4929888;29;20664;-72
2022/11/01 11:23:41;;;;;;;21.45;5.25;;;16.30;99.90;;;;;;4926595;29;20485;-72
2022/11/01 11:26:12;;;;;;;16.70;4.47;;;16.20;99.90;;;;;;4929879;29;21809;-72
2022/11/01 11:28:43;;;;;;;24.83;5.75;;;16.20;99.90;;;;;;4929569;29;20047;-72
2022/11/01 11:31:23;;;;;;;27.60;4.68;;;16.20;99.90;;;;;;4928849;29;20505;-72
2022/11/01 11:34:05;;;;;;;21.33;5.68;;;16.50;99.90;;;;;;4926280;29;20055;-72
2022/11/01 11:36:39;;;;;;;18.80;4.63;;;16.50;99.90;;;;;;4928169;29;20300;-72
2022/11/01 11:39:05;;;;;;;19.30;5.85;;;16.70;99.90;;;;;;4929256;29;20055;-72
2022/11/01 11:41:35;;;;;;;21.45;4.93;;;16.70;99.90;;;;;;4929450;29;20047;-72
2022/11/01 11:44:01;;;;;;;37.72;4.65;;;16.80;99.90;;;;;;4929408;29;20063;-72
2022/11/01 11:46:28;;;;;;;34.03;7.20;;;16.80;99.90;;;;;;4929466;29;20050;-72
2022/11/01 11:48:58;;;;;;;38.97;7.63;;;16.90;99.90;;;;;;4930098;29;20070;-72
2022/11/01 11:51:27;;;;;;;15.13;5.00;;;16.80;99.90;;;;;;4936174;29;20078;-72
2022/11/01 11:54:24;;;;;;;18.77;5.95;;;16.80;99.90;;;;;;4942694;29;20059;-72
2022/11/01 11:57:05;;;;;;;20.35;4.82;;;16.90;99.90;;;;;;4928158;29;20065;-72
2022/11/01 11:59:32;;;;;;;24.15;5.53;;;16.90;99.90;;;;;;4933369;29;20134;-73
2022/11/01 12:02:03;;;;;;;21.70;5.70;;;16.90;99.90;;;;;;4932870;29;20047;-72
2022/11/01 12:04:57;;;;;;;25.23;4.40;;;16.90;99.90;;;;;;4931639;29;20060;-72
2022/11/01 12:07:29;;;;;;;33.55;5.05;;;17.00;99.90;;;;;;4930639;29;20063;-72
2022/11/01 12:10:00;;;;;;;21.40;5.18;;;17.00;99.90;;;;;;4943213;29;20047;-72
2022/11/01 12:12:29;;;;;;;23.67;5.35;;;17.00;99.90;;;;;;4932897;29;20416;-72
2022/11/01 12:14:56;;;;;;;17.10;4.72;;;17.00;99.90;;;;;;4933911;29;20039;-72
2022/11/01 12:17:33;;;;;;;19.85;4.68;;;17.10;99.90;;;;;;4931503;29;20059;-72
2022/11/01 12:20:15;;;;;;;22.30;4.55;;;17.00;99.90;;;;;;4930876;29;20051;-72
2022/11/01 12:22:59;;;;;;;18.40;4.60;;;17.10;99.90;;;;;;4934439;29;20048;-72
2022/11/01 12:25:25;;;;;;;18.58;4.50;;;17.10;99.90;;;;;;4927304;29;20103;-72
2022/11/01 12:27:56;;;;;;;19.17;6.18;;;17.20;99.90;;;;;;4932632;29;20505;-72
2022/11/01 12:30:24;;;;;;;29.38;6.07;;;17.10;99.90;;;;;;4931835;29;20052;-72
2022/11/01 12:32:58;;;;;;;19.10;4.22;;;17.00;99.90;;;;;;4931944;29;20051;-72
2022/11/01 12:35:31;;;;;;;30.05;5.70;;;17.10;99.90;;;;;;4929585;29;20131;-72
2022/11/01 12:38:34;;;;;;;22.73;4.10;;;17.10;99.90;;;;;;4933023;29;20660;-72
2022/11/01 12:41:25;;;;;;;15.20;4.03;;;17.10;99.90;;;;;;4928639;29;20521;-72
2022/11/01 12:44:21;;;;;;;21.83;4.75;;;17.10;99.90;;;;;;4934558;29;20062;-72
2022/11/01 12:47:24;;;;;;;19.15;4.72;;;17.10;99.90;;;;;;4927068;29;20557;-72
2022/11/01 12:50:02;;;;;;;42.70;5.50;;;17.10;99.90;;;;;;4933313;29;20066;-72
2022/11/01 12:52:45;;;;;;;16.95;5.28;;;17.10;99.90;;;;;;4934107;29;20116;-73
2022/11/01 12:55:11;;;;;;;19.42;5.70;;;17.10;99.90;;;;;;4921984;29;20059;-72